FNBG

Benguela Airport

Benguela, Angola
METAR FNBG 231500Z 28005KT 9999 BKN015 25/19 Q1010
Observed Flight Rules
Sep-23 @ 15:00 UTC (13 hours ago) Marginal Visual Flight Rules
Wind Visibility Clouds
280° at 5 knots 10,000+ meters
  • Broken at 1,500' AGL
Temperatures Readings
Current 25°C / 77°F
Dewpoint 19°C / 66°F
Humidity 69%
Altimeter 29.82" Hg
Pressure 1010 hPa
Elevation 36
METAR FNBG 231500Z 28005KT 9999 BKN015 25/19 Q1010
Observed Flight Rules
Sep-23 @ 15:00 UTC
(13 hours ago)
MVFR
Wind Visibility
280° at 5 knots 10,000+ meters
Clouds
  • Broken at 1,500' AGL
Temperature Dewpoint
25°C / 77°F 19°C / 66°F
Humidity Altimeter Pressure
69% 29.82" Hg 1010 hPa